Comodoro Rivadavia, Argentina

6:06 PM ART en Enero 31, 2015 (GMT -0300)
GEN. Enrique Mosconi International | Change Station
CLOSE
Current Station
Aeropuerto
Location: Comodoro Rivadavia,
Altura: 151 ft
Estaciones meteorológicas cercanas

Alt 151 ft 45.78 °S, 67.50 °W | Updated 6 minutes ago

Partly Cloudy
Parcialmente nublado
88 ° F
Sensación térmica 88 ° F
N
16
Viento Variable Viento desde Oeste

Hoy
Alta -- | Baja -- ° F
--% Posibilidad de precipitaciones
Ayer
Alta -- | Baja -- ° F
Precip. -- pul
6:22 AM 9:03 PM
Gibosa creciente, 91% visible
Presión 29.71 pul
Visibilidad 6.2 Millas
Nubes Baja 4000 ft
Punto de rocío 41 ° F
Humedad 19%
Precipitaciones 0.00 pul
Espesor de la nieve No disponible.
UV 3 de una escala de 12
Polen No disponible.
Calidad del aire No disponible.
Flu Activity No disponible.
METAR SAVC 312100Z 27014KT 210V340 9999 FEW040 31/05 Q1006

More Conditions Fewer Conditions

Presión 29.71 pul
Visibilidad 6.2 Millas
Nubes Baja 4000 ft
Punto de rocío 41 ° F
Humedad 19%
Precipitaciones 0.00 pul
Espesor de la nieve No disponible.
UV 3 de una escala de 12
Polen No disponible.
Calidad del aire No disponible.
Flu Activity No disponible.
METAR SAVC 312100Z 27014KT 210V340 9999 FEW040 31/05 Q1006

More Conditions Fewer Conditions

10-Day Weather Forecast

Almanac

Astronomía

Jan. 31, 2015 Salida Puesta
Hora real
Crepúsculo civil
Crepúsculo náutico
Crepúsculo astronómico
Luna
Horas de luz
Horas de luz
Tomorrow will be .
, % of the Moon is Illuminated

Extremos de hoy

Máximos del país Bajas del país

Community

WunderPhotos

Upload Photos

1,792,204 ¡fotos cargadas!

WunderBlogs® & News

Nearby

Calidad del aire

  Calidad del aire Índice AQ Contaminante
Not available.

Grosos de nieve

Estación Profundido Altura

Actividad de terremotos

Ciudad Distance Mag. Tiempo y dato
Magnitud mínima muestra es 2,5.

Temperaturas de aguas costeras

Lugar Temperatura

Estaciones meteorológicas cercanas